createdAt,value
2024-02-13T00:01:32.567Z,11.62
2024-02-13T00:04:02.032Z,11.68
2024-02-13T00:06:30.305Z,11.70
2024-02-13T00:08:59.151Z,11.70
2024-02-13T00:11:27.448Z,11.64
2024-02-13T00:13:57.958Z,11.60
2024-02-13T00:16:26.896Z,11.56
2024-02-13T00:18:55.040Z,11.56
2024-02-13T00:21:24.564Z,11.58
2024-02-13T00:23:52.773Z,11.59
2024-02-13T00:26:20.806Z,11.58
2024-02-13T00:28:48.879Z,11.57
2024-02-13T00:31:16.913Z,11.55
2024-02-13T00:33:45.097Z,11.52
2024-02-13T00:36:16.865Z,11.48
2024-02-13T00:38:47.226Z,11.44
2024-02-13T00:41:15.410Z,11.34
2024-02-13T00:43:43.436Z,11.34
2024-02-13T00:46:12.163Z,11.35
2024-02-13T00:48:40.436Z,11.37
2024-02-13T00:51:08.588Z,11.38
2024-02-13T00:53:38.959Z,11.42
2024-02-13T00:56:09.503Z,11.46
2024-02-13T00:58:38.504Z,11.52
2024-02-13T01:01:06.699Z,11.56
2024-02-13T01:03:37.709Z,11.64
2024-02-13T01:06:09.152Z,11.71
2024-02-13T01:08:39.034Z,11.77
2024-02-13T01:11:09.144Z,11.80
2024-02-13T01:13:38.510Z,11.84
2024-02-13T01:16:06.751Z,11.82
2024-02-13T01:18:36.541Z,11.79
2024-02-13T01:21:06.588Z,11.77
2024-02-13T01:23:34.733Z,11.72
2024-02-13T01:26:04.347Z,11.68
2024-02-13T01:28:36.131Z,11.63
2024-02-13T01:31:04.522Z,11.60
2024-02-13T01:33:32.788Z,11.60
2024-02-13T01:36:01.462Z,11.61
2024-02-13T01:38:31.431Z,11.57
2024-02-13T01:40:59.612Z,11.54
2024-02-13T01:43:30.407Z,11.56
2024-02-13T01:45:59.829Z,11.55
2024-02-13T01:48:27.960Z,11.58
2024-02-13T01:50:57.347Z,11.58
2024-02-13T01:53:25.862Z,11.58
2024-02-13T01:55:53.857Z,11.59
2024-02-13T01:58:21.904Z,11.58
2024-02-13T02:00:50.002Z,11.58
2024-02-13T02:03:20.253Z,11.58
2024-02-13T02:05:48.395Z,11.61
2024-02-13T02:08:16.452Z,11.62
2024-02-13T02:10:45.795Z,11.64
2024-02-13T02:13:15.936Z,11.71
2024-02-13T02:15:44.064Z,11.77
2024-02-13T02:18:12.305Z,11.82
2024-02-13T02:20:41.819Z,11.85
2024-02-13T02:23:09.979Z,11.88
2024-02-13T02:25:39.372Z,11.91
2024-02-13T02:28:07.623Z,11.94
2024-02-13T02:30:35.659Z,11.93
2024-02-13T02:33:04.292Z,11.95
2024-02-13T02:35:32.389Z,12.00
2024-02-13T02:38:00.440Z,12.06
2024-02-13T02:40:29.217Z,12.07
2024-02-13T02:43:00.773Z,12.07
2024-02-13T02:45:29.132Z,12.05
2024-02-13T02:47:57.941Z,12.03
2024-02-13T02:50:26.462Z,12.00
2024-02-13T02:52:54.520Z,11.98
2024-02-13T02:55:23.431Z,11.95
2024-02-13T02:57:52.191Z,11.94
2024-02-13T03:00:22.326Z,11.92
2024-02-13T03:02:50.574Z,11.87
2024-02-13T03:05:19.099Z,11.83
2024-02-13T03:07:48.096Z,11.79
2024-02-13T03:10:16.199Z,11.77
2024-02-13T03:12:45.344Z,11.77
2024-02-13T03:15:14.015Z,11.75
2024-02-13T03:17:43.705Z,11.71
2024-02-13T03:20:14.012Z,11.67
2024-02-13T03:22:43.275Z,11.68
2024-02-13T03:25:11.624Z,11.67
2024-02-13T03:27:39.679Z,11.64
2024-02-13T03:30:09.580Z,11.67
2024-02-13T03:32:37.774Z,11.73
2024-02-13T03:35:08.147Z,11.77
2024-02-13T03:37:36.391Z,11.84
2024-02-13T03:40:07.574Z,11.90
2024-02-13T03:42:37.489Z,11.96
2024-02-13T03:45:06.506Z,12.01
2024-02-13T03:47:34.723Z,12.03
2024-02-13T03:50:03.868Z,12.03
2024-02-13T03:52:35.151Z,12.03
2024-02-13T03:55:04.305Z,12.05
2024-02-13T03:57:32.598Z,12.06
2024-02-13T04:00:01.604Z,12.02
2024-02-13T04:02:34.325Z,11.98
2024-02-13T04:05:02.451Z,12.01
2024-02-13T04:07:30.473Z,12.05
2024-02-13T04:10:00.888Z,12.06
2024-02-13T04:12:28.907Z,12.10
2024-02-13T04:14:57.215Z,12.13
2024-02-13T04:17:26.228Z,12.10
2024-02-13T04:19:54.710Z,12.09
2024-02-13T04:22:22.828Z,12.12
2024-02-13T04:24:51.256Z,12.15
2024-02-13T04:27:22.318Z,12.18
2024-02-13T04:29:50.587Z,12.23
2024-02-13T04:32:18.742Z,12.24
2024-02-13T04:34:46.840Z,12.26
2024-02-13T04:37:14.858Z,12.28
2024-02-13T04:39:42.880Z,12.30
2024-02-13T04:42:12.359Z,12.31
2024-02-13T04:44:41.888Z,12.30
2024-02-13T04:47:09.916Z,12.31
2024-02-13T04:49:38.006Z,12.33
2024-02-13T04:52:06.732Z,12.28
2024-02-13T04:54:34.828Z,12.34
2024-02-13T04:57:02.815Z,12.34
2024-02-13T04:59:38.738Z,12.33
2024-02-13T05:02:08.247Z,12.33
2024-02-13T05:04:53.805Z,12.34
2024-02-13T05:07:21.833Z,12.33
2024-02-13T05:09:49.962Z,12.34
2024-02-13T05:12:17.960Z,12.35
2024-02-13T05:14:46.022Z,12.35
2024-02-13T05:17:16.085Z,12.35
2024-02-13T05:19:44.114Z,12.31
2024-02-13T05:22:12.103Z,12.32
2024-02-13T05:24:40.455Z,12.34
2024-02-13T05:27:09.283Z,12.33
2024-02-13T05:29:37.402Z,12.35
2024-02-13T05:32:05.735Z,12.34
2024-02-13T05:34:35.479Z,12.33
2024-02-13T05:37:03.577Z,12.34
2024-02-13T05:39:31.555Z,12.35
2024-02-13T05:41:59.606Z,12.35
2024-02-13T05:44:27.587Z,12.36
2024-02-13T05:46:57.549Z,12.36
2024-02-13T05:49:25.656Z,12.39
2024-02-13T05:51:56.457Z,12.40
2024-02-13T05:54:24.517Z,12.41
2024-02-13T05:56:52.635Z,12.41
2024-02-13T05:59:25.046Z,12.41
2024-02-13T06:01:53.901Z,12.41
2024-02-13T06:04:22.737Z,12.39
2024-02-13T06:06:50.706Z,12.36
2024-02-13T06:09:22.488Z,12.37
2024-02-13T06:11:50.876Z,12.41
2024-02-13T06:14:20.137Z,12.39
2024-02-13T06:16:48.462Z,12.37
2024-02-13T06:19:16.609Z,12.33
2024-02-13T06:21:44.731Z,12.33
2024-02-13T06:24:12.845Z,12.33
2024-02-13T06:26:42.568Z,12.33
2024-02-13T06:29:10.733Z,12.32
2024-02-13T06:31:38.843Z,12.32
2024-02-13T06:34:06.928Z,12.33
2024-02-13T06:36:34.975Z,12.30
2024-02-13T06:39:04.200Z,12.27
2024-02-13T06:41:32.377Z,12.22
2024-02-13T06:44:04.382Z,12.21
2024-02-13T06:46:32.404Z,12.23
2024-02-13T06:49:00.599Z,12.23
2024-02-13T06:51:30.080Z,12.24
2024-02-13T06:54:01.917Z,12.22
2024-02-13T06:56:30.139Z,12.21
2024-02-13T06:58:58.159Z,12.22
2024-02-13T07:01:28.057Z,12.22
2024-02-13T07:03:56.077Z,12.21
2024-02-13T07:06:37.872Z,12.20
2024-02-13T07:09:13.045Z,12.19
2024-02-13T07:11:41.123Z,12.21
2024-02-13T07:14:10.050Z,12.20
2024-02-13T07:16:41.520Z,12.19
2024-02-13T07:19:11.301Z,12.19
2024-02-13T07:21:39.578Z,12.22
2024-02-13T07:24:08.548Z,12.22
2024-02-13T07:26:37.284Z,12.21
2024-02-13T07:29:05.430Z,12.22
2024-02-13T07:31:36.782Z,12.24
2024-02-13T07:34:06.429Z,12.23
2024-02-13T07:36:34.609Z,12.23
2024-02-13T07:39:02.899Z,12.25
2024-02-13T07:41:30.953Z,12.26
2024-02-13T07:44:00.230Z,12.26
2024-02-13T07:46:28.274Z,12.28
2024-02-13T07:48:56.696Z,12.28
2024-02-13T07:51:26.227Z,12.27
2024-02-13T07:53:54.310Z,12.29
2024-02-13T07:56:29.846Z,12.29
2024-02-13T07:58:58.932Z,12.31
2024-02-13T08:01:26.982Z,12.33
2024-02-13T08:03:55.833Z,12.33
2024-02-13T08:06:24.102Z,12.30
2024-02-13T08:08:53.632Z,12.34
2024-02-13T08:11:22.805Z,12.34
2024-02-13T08:13:50.885Z,12.31
2024-02-13T08:16:20.141Z,12.38
2024-02-13T08:18:51.389Z,12.40
2024-02-13T08:21:19.756Z,12.41
2024-02-13T08:23:47.819Z,12.40
2024-02-13T08:26:17.284Z,12.41
2024-02-13T08:28:45.632Z,12.43
2024-02-13T08:31:13.672Z,12.44
2024-02-13T08:33:42.273Z,12.45
2024-02-13T08:36:10.695Z,12.49
2024-02-13T08:38:44.683Z,12.48
2024-02-13T08:41:14.731Z,12.51
2024-02-13T08:43:44.233Z,12.51
2024-02-13T08:46:14.534Z,12.55
2024-02-13T08:48:43.036Z,12.58
2024-02-13T08:51:11.336Z,12.59
2024-02-13T08:53:39.482Z,12.61
2024-02-13T08:56:07.954Z,12.63
2024-02-13T08:58:36.177Z,12.65
2024-02-13T09:01:06.166Z,12.68
2024-02-13T09:03:35.217Z,12.71
2024-02-13T09:06:05.856Z,12.71
2024-02-13T09:08:34.725Z,12.77
2024-02-13T09:11:02.765Z,12.77
2024-02-13T09:13:31.331Z,12.76
2024-02-13T09:15:59.383Z,12.78
2024-02-13T09:18:28.953Z,12.78
2024-02-13T09:20:59.987Z,12.81
2024-02-13T09:23:29.225Z,12.86
2024-02-13T09:25:57.314Z,12.89
2024-02-13T09:28:25.477Z,12.91
2024-02-13T09:30:53.491Z,12.94
2024-02-13T09:33:22.595Z,12.96
2024-02-13T09:35:52.471Z,13.04
2024-02-13T09:38:20.583Z,13.06
2024-02-13T09:40:50.087Z,13.13
2024-02-13T09:43:19.170Z,13.17
2024-02-13T09:45:47.380Z,13.21
2024-02-13T09:48:21.121Z,13.23
2024-02-13T09:50:51.745Z,13.24
2024-02-13T09:53:24.122Z,13.29
2024-02-13T09:55:52.307Z,13.31
2024-02-13T09:58:21.736Z,13.36
2024-02-13T10:00:50.115Z,13.38
2024-02-13T10:03:18.519Z,13.45
2024-02-13T10:05:46.689Z,13.49
2024-02-13T10:08:19.019Z,13.52
2024-02-13T10:10:47.397Z,13.54
2024-02-13T10:13:15.647Z,13.55
2024-02-13T10:15:45.056Z,13.57
2024-02-13T10:18:14.945Z,13.65
2024-02-13T10:20:43.176Z,13.69
2024-02-13T10:23:14.429Z,13.70
2024-02-13T10:25:44.813Z,13.75
2024-02-13T10:28:13.523Z,13.79
2024-02-13T10:30:41.832Z,13.85
2024-02-13T10:33:09.901Z,13.89
2024-02-13T10:35:38.758Z,13.92
2024-02-13T10:38:08.747Z,13.95
2024-02-13T10:40:40.562Z,13.97
2024-02-13T10:43:13.583Z,14.02
2024-02-13T10:45:41.875Z,14.06
2024-02-13T10:48:15.594Z,14.11
2024-02-13T10:50:44.273Z,14.16
2024-02-13T10:53:15.508Z,14.18
2024-02-13T10:55:44.196Z,14.23
2024-02-13T10:58:24.176Z,14.24
2024-02-13T11:00:57.097Z,14.27
2024-02-13T11:03:25.674Z,14.26
2024-02-13T11:05:54.310Z,14.27
2024-02-13T11:08:22.740Z,14.28
2024-02-13T11:10:51.183Z,14.21
2024-02-13T11:13:21.822Z,14.28
2024-02-13T11:15:50.248Z,14.32
2024-02-13T11:18:18.481Z,14.32
2024-02-13T11:20:47.509Z,14.36
2024-02-13T11:23:17.174Z,14.39
2024-02-13T11:25:57.610Z,14.42
2024-02-13T11:28:33.757Z,14.45
2024-02-13T11:31:01.784Z,14.45
2024-02-13T11:33:30.052Z,14.48
2024-02-13T11:36:00.096Z,14.54
2024-02-13T11:38:30.237Z,14.55
2024-02-13T11:40:58.495Z,14.60
2024-02-13T11:43:28.449Z,14.64
2024-02-13T11:45:57.764Z,14.69
2024-02-13T11:48:30.489Z,14.74
2024-02-13T11:51:03.469Z,14.87
2024-02-13T11:53:32.471Z,15.04
2024-02-13T11:56:00.631Z,15.21
2024-02-13T11:58:32.676Z,15.41
2024-02-13T12:01:02.261Z,15.54
2024-02-13T12:03:30.572Z,15.63
2024-02-13T12:05:59.005Z,15.71
2024-02-13T12:08:29.049Z,15.78
2024-02-13T12:10:58.960Z,15.87
2024-02-13T12:13:26.992Z,16.00
2024-02-13T12:15:58.713Z,16.12
2024-02-13T12:18:28.986Z,16.11
2024-02-13T12:20:58.092Z,16.15
2024-02-13T12:23:26.756Z,16.19
2024-02-13T12:26:00.632Z,16.26
2024-02-13T12:28:29.469Z,16.31
2024-02-13T12:31:00.388Z,16.33
2024-02-13T12:33:30.065Z,16.34
2024-02-13T12:36:02.610Z,16.34
2024-02-13T12:38:31.870Z,16.32
2024-02-13T12:41:00.197Z,16.31
2024-02-13T12:43:29.695Z,16.34
2024-02-13T12:46:00.006Z,16.31
2024-02-13T12:48:35.241Z,16.31
2024-02-13T12:51:10.287Z,16.35
2024-02-13T12:53:40.832Z,16.36
2024-02-13T12:56:10.978Z,16.35
2024-02-13T12:58:39.280Z,16.36
2024-02-13T13:01:11.293Z,16.38
2024-02-13T13:03:40.274Z,16.40
2024-02-13T13:06:12.686Z,16.40
2024-02-13T13:08:43.280Z,16.44
2024-02-13T13:11:11.756Z,16.43
2024-02-13T13:13:40.157Z,16.46
2024-02-13T13:16:12.556Z,16.49
2024-02-13T13:18:40.764Z,16.47
2024-02-13T13:21:09.751Z,16.49
2024-02-13T13:23:39.321Z,16.51
2024-02-13T13:26:09.836Z,16.57
2024-02-13T13:28:39.785Z,16.59
2024-02-13T13:31:10.078Z,16.58
2024-02-13T13:33:38.867Z,16.62
2024-02-13T13:36:08.942Z,16.65
2024-02-13T13:38:39.558Z,16.72
2024-02-13T13:41:08.411Z,16.70
2024-02-13T13:43:36.518Z,16.71
2024-02-13T13:46:05.375Z,16.75
2024-02-13T13:48:36.159Z,16.73
2024-02-13T13:51:04.948Z,16.70
2024-02-13T13:53:33.332Z,16.74
2024-02-13T13:56:01.500Z,16.72
2024-02-13T13:58:30.876Z,16.56
2024-02-13T14:00:58.998Z,16.63
2024-02-13T14:03:27.069Z,16.60
2024-02-13T14:05:56.609Z,16.59
2024-02-13T14:08:24.765Z,16.70
2024-02-13T14:10:53.729Z,16.70
2024-02-13T14:13:21.747Z,16.74
2024-02-13T14:15:50.829Z,16.78
2024-02-13T14:18:20.919Z,16.66
2024-02-13T14:20:49.108Z,16.69
2024-02-13T14:23:21.762Z,16.62
2024-02-13T14:25:50.386Z,16.70
2024-02-13T14:28:19.161Z,16.61
2024-02-13T14:30:47.566Z,16.62
2024-02-13T14:33:16.449Z,16.63
2024-02-13T14:35:48.753Z,16.51
2024-02-13T14:38:18.644Z,16.61
2024-02-13T14:40:47.034Z,16.53
2024-02-13T14:43:16.523Z,16.50
2024-02-13T14:45:45.528Z,16.53
2024-02-13T14:48:16.356Z,16.52
2024-02-13T14:50:45.863Z,16.39
2024-02-13T14:53:18.334Z,16.39
2024-02-13T14:55:47.981Z,16.29
2024-02-13T14:58:23.170Z,16.27
2024-02-13T15:00:59.187Z,16.22
2024-02-13T15:03:27.777Z,16.25
2024-02-13T15:05:55.906Z,16.27
2024-02-13T15:08:24.190Z,16.32
2024-02-13T15:10:53.705Z,16.28
2024-02-13T15:13:22.572Z,16.34
2024-02-13T15:15:52.239Z,16.33
2024-02-13T15:18:23.514Z,16.37
2024-02-13T15:20:52.192Z,16.36
2024-02-13T15:23:20.419Z,16.40
2024-02-13T15:25:48.575Z,16.33
2024-02-13T15:28:18.442Z,16.38
2024-02-13T15:30:46.810Z,16.34
2024-02-13T15:33:16.039Z,16.41
2024-02-13T15:35:53.053Z,16.31
2024-02-13T15:38:38.945Z,16.38
2024-02-13T15:41:24.327Z,16.41
2024-02-13T15:44:11.465Z,16.41
2024-02-13T15:46:56.958Z,16.26
2024-02-13T15:49:25.257Z,16.40
2024-02-13T15:51:53.682Z,16.46
2024-02-13T15:54:21.846Z,16.44
2024-02-13T15:56:50.899Z,16.36
2024-02-13T15:59:20.553Z,16.37
2024-02-13T16:01:48.635Z,16.36
2024-02-13T16:04:19.538Z,16.31
2024-02-13T16:06:48.453Z,16.29
2024-02-13T16:09:16.791Z,16.32
2024-02-13T16:11:45.114Z,16.34
2024-02-13T16:14:14.379Z,16.23
2024-02-13T16:16:44.236Z,16.33
2024-02-13T16:19:12.404Z,16.37
2024-02-13T16:21:43.191Z,16.39
2024-02-13T16:24:11.964Z,16.36
2024-02-13T16:26:50.060Z,16.31
2024-02-13T16:29:21.113Z,16.38
2024-02-13T16:31:54.380Z,16.36
2024-02-13T16:34:23.090Z,16.41
2024-02-13T16:36:51.353Z,16.41
2024-02-13T16:39:19.619Z,16.27
2024-02-13T16:41:47.818Z,16.27
2024-02-13T16:44:24.775Z,16.34
2024-02-13T16:47:00.460Z,16.31
2024-02-13T16:49:28.671Z,16.34
2024-02-13T16:51:56.718Z,16.35
2024-02-13T16:54:24.773Z,16.27
2024-02-13T16:56:53.622Z,16.36
2024-02-13T16:59:21.720Z,16.36
2024-02-13T17:01:49.765Z,16.36
2024-02-13T17:04:19.371Z,16.30
2024-02-13T17:06:47.983Z,16.27
2024-02-13T17:09:17.036Z,16.35
2024-02-13T17:11:45.224Z,16.37
2024-02-13T17:14:13.361Z,16.38
2024-02-13T17:16:41.400Z,16.35
2024-02-13T17:19:14.576Z,16.35
2024-02-13T17:21:44.424Z,16.35
2024-02-13T17:24:12.858Z,16.35
2024-02-13T17:26:41.370Z,16.34
2024-02-13T17:29:09.839Z,16.28
2024-02-13T17:31:37.918Z,16.30
2024-02-13T17:34:06.220Z,16.24
2024-02-13T17:36:34.396Z,16.17
2024-02-13T17:39:06.506Z,16.05
2024-02-13T17:41:34.695Z,16.00
2024-02-13T17:44:02.773Z,15.93
2024-02-13T17:46:30.840Z,16.00
2024-02-13T17:48:59.149Z,15.98
2024-02-13T17:51:27.332Z,15.99
2024-02-13T17:53:56.392Z,15.94
2024-02-13T17:56:26.238Z,16.05
2024-02-13T17:58:55.075Z,16.05
2024-02-13T18:01:23.250Z,16.11
2024-02-13T18:03:53.159Z,16.15
2024-02-13T18:06:21.435Z,16.10
2024-02-13T18:08:49.454Z,16.17
2024-02-13T18:11:17.466Z,16.12
2024-02-13T18:13:47.398Z,16.12
2024-02-13T18:16:15.800Z,16.16
2024-02-13T18:18:44.091Z,16.23
2024-02-13T18:21:12.462Z,16.22
2024-02-13T18:23:40.629Z,16.19
2024-02-13T18:26:08.664Z,16.10
2024-02-13T18:28:38.449Z,16.10
2024-02-13T18:31:08.205Z,16.09
2024-02-13T18:33:36.350Z,16.16
2024-02-13T18:36:05.881Z,16.20
2024-02-13T18:38:33.957Z,16.20
2024-02-13T18:41:02.065Z,16.23
2024-02-13T18:43:30.171Z,16.22
2024-02-13T18:45:58.206Z,16.26
2024-02-13T18:48:27.999Z,16.22
2024-02-13T18:50:56.138Z,16.27
2024-02-13T18:53:26.641Z,16.27
2024-02-13T18:55:55.322Z,16.32
2024-02-13T18:58:23.377Z,16.31
2024-02-13T19:00:51.879Z,16.29
2024-02-13T19:03:21.436Z,16.29
2024-02-13T19:05:52.152Z,16.35
2024-02-13T19:08:20.878Z,16.33
2024-02-13T19:10:49.834Z,16.32
2024-02-13T19:13:17.984Z,16.25
2024-02-13T19:15:46.487Z,16.33
2024-02-13T19:18:15.098Z,16.29
2024-02-13T19:20:43.898Z,16.26
2024-02-13T19:23:13.368Z,16.18
2024-02-13T19:25:41.444Z,16.19
2024-02-13T19:28:09.916Z,16.24
2024-02-13T19:30:38.040Z,16.16
2024-02-13T19:33:08.089Z,16.18
2024-02-13T19:35:36.340Z,16.11
2024-02-13T19:38:04.480Z,16.17
2024-02-13T19:40:34.104Z,16.13
2024-02-13T19:43:02.163Z,16.15
2024-02-13T19:45:30.256Z,16.15
2024-02-13T19:47:58.571Z,16.12
2024-02-13T19:50:26.724Z,16.11
2024-02-13T19:52:54.848Z,16.10
2024-02-13T19:55:22.893Z,16.14
2024-02-13T19:57:54.554Z,16.12
2024-02-13T20:00:23.366Z,16.15
2024-02-13T20:02:51.392Z,16.14
2024-02-13T20:05:19.718Z,16.18
2024-02-13T20:07:48.028Z,16.18
2024-02-13T20:10:17.415Z,16.19
2024-02-13T20:12:45.791Z,16.22
2024-02-13T20:15:14.627Z,16.24
2024-02-13T20:17:45.152Z,16.30
2024-02-13T20:20:15.970Z,16.32
2024-02-13T20:22:46.601Z,16.35
2024-02-13T20:25:15.236Z,16.37
2024-02-13T20:27:44.725Z,16.36
2024-02-13T20:30:15.622Z,16.33
2024-02-13T20:32:48.017Z,16.36
2024-02-13T20:35:16.215Z,16.41
2024-02-13T20:37:44.339Z,16.36
2024-02-13T20:40:13.250Z,16.32
2024-02-13T20:42:43.411Z,16.35
2024-02-13T20:45:20.605Z,16.32
2024-02-13T20:47:53.486Z,16.31
2024-02-13T20:50:22.341Z,16.25
2024-02-13T20:52:50.604Z,16.31
2024-02-13T20:55:20.194Z,16.23
2024-02-13T20:57:49.281Z,16.23
2024-02-13T21:00:18.753Z,16.26
2024-02-13T21:02:49.316Z,16.24
2024-02-13T21:05:21.942Z,16.24
2024-02-13T21:07:50.303Z,16.21
2024-02-13T21:10:18.598Z,16.23
2024-02-13T21:12:46.865Z,16.21
2024-02-13T21:15:14.974Z,16.18
2024-02-13T21:17:43.465Z,16.22
2024-02-13T21:20:12.913Z,16.24
2024-02-13T21:22:59.820Z,16.24
2024-02-13T21:25:28.050Z,16.24
2024-02-13T21:27:56.275Z,16.25
2024-02-13T21:30:24.307Z,16.26
2024-02-13T21:32:53.175Z,16.25
2024-02-13T21:35:22.722Z,16.23
2024-02-13T21:37:52.202Z,16.18
2024-02-13T21:40:20.375Z,16.22
2024-02-13T21:42:50.477Z,16.22
2024-02-13T21:45:18.573Z,16.19
2024-02-13T21:47:46.932Z,16.16
2024-02-13T21:50:15.583Z,16.24
2024-02-13T21:52:43.892Z,16.27
2024-02-13T21:55:13.362Z,16.27
2024-02-13T21:57:41.383Z,16.32
2024-02-13T22:00:11.643Z,16.30
2024-02-13T22:02:39.866Z,16.38
2024-02-13T22:05:08.295Z,16.40
2024-02-13T22:07:38.685Z,16.42
2024-02-13T22:10:09.120Z,16.36
2024-02-13T22:12:38.799Z,16.45
2024-02-13T22:15:11.609Z,16.47
2024-02-13T22:17:40.154Z,16.43
2024-02-13T22:20:09.938Z,16.47
2024-02-13T22:22:38.183Z,16.49
2024-02-13T22:25:06.896Z,16.50
2024-02-13T22:27:34.886Z,16.50
2024-02-13T22:30:04.661Z,16.51
2024-02-13T22:32:32.969Z,16.53
2024-02-13T22:35:01.314Z,16.47
2024-02-13T22:37:30.411Z,16.49
2024-02-13T22:39:59.766Z,16.46
2024-02-13T22:42:27.936Z,16.53
2024-02-13T22:44:55.966Z,16.58
2024-02-13T22:47:25.546Z,16.56
2024-02-13T22:49:53.838Z,16.54
2024-02-13T22:52:21.932Z,16.54
2024-02-13T22:54:49.908Z,16.55
2024-02-13T22:57:17.980Z,16.55
2024-02-13T22:59:46.556Z,16.54
2024-02-13T23:02:14.648Z,16.54
2024-02-13T23:04:50.166Z,16.61
2024-02-13T23:07:19.732Z,16.63
2024-02-13T23:09:47.738Z,16.66
2024-02-13T23:12:16.881Z,16.69
2024-02-13T23:14:45.088Z,16.67
2024-02-13T23:17:13.078Z,16.71
2024-02-13T23:19:41.120Z,16.70
2024-02-13T23:22:10.659Z,16.70
2024-02-13T23:24:39.375Z,16.67
2024-02-13T23:27:08.253Z,16.66
2024-02-13T23:29:35.530Z,16.65
2024-02-13T23:32:03.547Z,16.60
2024-02-13T23:34:32.804Z,16.54
2024-02-13T23:37:00.851Z,16.58
2024-02-13T23:39:30.236Z,16.55
2024-02-13T23:41:58.290Z,16.55
2024-02-13T23:44:26.579Z,16.53
2024-02-13T23:46:54.621Z,16.55
2024-02-13T23:49:22.676Z,16.57
2024-02-13T23:51:51.798Z,16.53
2024-02-13T23:54:19.888Z,16.53
2024-02-13T23:56:49.401Z,16.61
2024-02-13T23:59:17.503Z,16.67
